FIN68 RJBB-EFHK
Flight info
| Callsign | FIN68 |
|---|---|
| Flight time | N/A |
| Altitude | 35000 |
| Route | MAIKO AVLEX OLIVE V38 YME Y295 KCC Y88 DAIGO Y889 PUTER A590 PASRO/N0492F370 A590 POWAL DCT OPAKE DCT MARCC DCT JUJXI/N0495F380 DCT 80N165W DCT DEKMO/N0497F400 DCT 8930N06000W/M085F390 82N020E/N0502F390 80N021E DCT BARUX/N0493F410 DCT IBOSU Y86 LUSEP |
| Aircraft | A359/H-SDE2E3GHIJ3J4J5LM1ORWXY/LB1D1 |
Departure
| Time | N/A |
|---|---|
| Airport | Kansai International Airport (RJBB) |
Arrival
| Time | 2026-04-22 18:29 |
|---|---|
| Airport | Helsinki Vantaa Airport (EFHK) |
| Time | Latitude | Longitude | Altitude | Speed | Heading |
|---|---|---|---|---|---|
| 2026-04-22 18:00 | 62.91260 | 25.20278 | 40840 ft | 563 kts | 170° |
| 2026-04-22 18:00 | 62.87372 | 25.21650 | 40839 ft | 563 kts | 170° |
| 2026-04-22 18:01 | 62.79631 | 25.24368 | 40830 ft | 563 kts | 170° |
| 2026-04-22 18:01 | 62.71879 | 25.27076 | 40827 ft | 563 kts | 170° |
| 2026-04-22 18:02 | 62.64148 | 25.29764 | 40816 ft | 563 kts | 170° |
| 2026-04-22 18:02 | 62.56400 | 25.32444 | 40809 ft | 563 kts | 170° |
| 2026-04-22 18:03 | 62.48629 | 25.33633 | 40804 ft | 563 kts | 180° |
| 2026-04-22 18:03 | 62.40765 | 25.33386 | 40803 ft | 563 kts | 182° |
| 2026-04-22 18:04 | 62.32906 | 25.32929 | 40802 ft | 563 kts | 182° |
| 2026-04-22 18:04 | 62.25102 | 25.32500 | 40799 ft | 563 kts | 182° |
| 2026-04-22 18:04 | 62.21182 | 25.32303 | 40691 ft | 559 kts | 182° |
| 2026-04-22 18:05 | 62.17261 | 25.32114 | 40003 ft | 560 kts | 182° |
| 2026-04-22 18:05 | 62.13365 | 25.31931 | 39151 ft | 567 kts | 182° |
| 2026-04-22 18:05 | 62.09380 | 25.31745 | 38244 ft | 574 kts | 182° |
| 2026-04-22 18:05 | 62.05405 | 25.31562 | 37214 ft | 580 kts | 182° |
| 2026-04-22 18:06 | 62.01341 | 25.31374 | 36260 ft | 584 kts | 182° |
| 2026-04-22 18:06 | 61.97255 | 25.31175 | 35329 ft | 587 kts | 182° |
| 2026-04-22 18:06 | 61.93197 | 25.30999 | 34440 ft | 591 kts | 182° |
| 2026-04-22 18:06 | 61.89062 | 25.30817 | 33502 ft | 594 kts | 182° |
| 2026-04-22 18:07 | 61.84885 | 25.30627 | 32449 ft | 597 kts | 182° |
| 2026-04-22 18:07 | 61.80733 | 25.30437 | 31452 ft | 599 kts | 182° |
| 2026-04-22 18:07 | 61.76593 | 25.30244 | 30480 ft | 601 kts | 182° |
| 2026-04-22 18:07 | 61.72394 | 25.30047 | 29414 ft | 604 kts | 182° |
| 2026-04-22 18:08 | 61.68182 | 25.29848 | 28394 ft | 603 kts | 182° |
| 2026-04-22 18:08 | 61.63983 | 25.29651 | 27546 ft | 600 kts | 182° |
| 2026-04-22 18:08 | 61.59819 | 25.29469 | 26753 ft | 596 kts | 182° |
| 2026-04-22 18:08 | 61.55674 | 25.29297 | 25986 ft | 591 kts | 182° |
| 2026-04-22 18:09 | 61.51606 | 25.29113 | 25168 ft | 575 kts | 182° |
| 2026-04-22 18:09 | 61.47639 | 25.28929 | 23745 ft | 561 kts | 182° |
| 2026-04-22 18:09 | 61.43741 | 25.28739 | 22123 ft | 555 kts | 183° |
| 2026-04-22 18:09 | 61.39981 | 25.28552 | 21556 ft | 543 kts | 183° |
| 2026-04-22 18:10 | 61.36203 | 25.28368 | 21046 ft | 538 kts | 183° |
| 2026-04-22 18:10 | 61.32474 | 25.28189 | 20423 ft | 533 kts | 182° |
| 2026-04-22 18:10 | 61.28817 | 25.28017 | 19773 ft | 530 kts | 182° |
| 2026-04-22 18:10 | 61.25140 | 25.27847 | 19107 ft | 526 kts | 182° |
| 2026-04-22 18:11 | 61.21482 | 25.27679 | 18441 ft | 523 kts | 182° |
| 2026-04-22 18:11 | 61.17842 | 25.27511 | 17732 ft | 520 kts | 182° |
| 2026-04-22 18:11 | 61.14256 | 25.27343 | 17016 ft | 515 kts | 182° |
| 2026-04-22 18:11 | 61.10632 | 25.27186 | 16326 ft | 509 kts | 182° |
| 2026-04-22 18:12 | 61.07097 | 25.27043 | 15673 ft | 503 kts | 182° |
| 2026-04-22 18:12 | 61.03688 | 25.26878 | 15383 ft | 488 kts | 181° |
| 2026-04-22 18:12 | 61.01419 | 25.26818 | 15218 ft | 478 kts | 180° |
| 2026-04-22 18:12 | 60.97177 | 25.26770 | 14876 ft | 459 kts | 180° |
| 2026-04-22 18:13 | 60.95457 | 25.26737 | 14808 ft | 451 kts | 180° |
| 2026-04-22 18:13 | 60.92307 | 25.26778 | 14658 ft | 435 kts | 176° |
| 2026-04-22 18:13 | 60.89363 | 25.27054 | 14525 ft | 421 kts | 176° |
| 2026-04-22 18:13 | 60.86445 | 25.27330 | 14320 ft | 409 kts | 176° |
| 2026-04-22 18:14 | 60.83655 | 25.27555 | 14113 ft | 399 kts | 176° |
| 2026-04-22 18:14 | 60.80903 | 25.27757 | 13890 ft | 390 kts | 176° |
| 2026-04-22 18:14 | 60.78246 | 25.27944 | 13524 ft | 379 kts | 176° |
| 2026-04-22 18:14 | 60.75630 | 25.28119 | 12828 ft | 368 kts | 177° |
| 2026-04-22 18:15 | 60.73119 | 25.28268 | 12446 ft | 350 kts | 180° |
| 2026-04-22 18:15 | 60.70784 | 25.28308 | 12146 ft | 346 kts | 181° |
| 2026-04-22 18:15 | 60.68374 | 25.28352 | 11828 ft | 342 kts | 180° |
| 2026-04-22 18:15 | 60.66010 | 25.28439 | 11524 ft | 339 kts | 180° |
| 2026-04-22 18:16 | 60.63656 | 25.28554 | 11206 ft | 336 kts | 179° |
| 2026-04-22 18:16 | 60.61329 | 25.28535 | 10895 ft | 332 kts | 188° |
| 2026-04-22 18:16 | 60.59206 | 25.27111 | 10610 ft | 314 kts | 220° |
| 2026-04-22 18:16 | 60.57650 | 25.24266 | 10334 ft | 297 kts | 238° |
| 2026-04-22 18:17 | 60.56292 | 25.21117 | 10059 ft | 295 kts | 239° |
| 2026-04-22 18:17 | 60.54935 | 25.17973 | 9824 ft | 297 kts | 239° |
| 2026-04-22 18:17 | 60.53510 | 25.14736 | 9736 ft | 310 kts | 237° |
| 2026-04-22 18:17 | 60.52084 | 25.11544 | 9465 ft | 311 kts | 237° |
| 2026-04-22 18:18 | 60.50620 | 25.08269 | 9149 ft | 312 kts | 236° |
| 2026-04-22 18:18 | 60.49144 | 25.04984 | 8855 ft | 311 kts | 236° |
| 2026-04-22 18:18 | 60.47698 | 25.01786 | 8554 ft | 310 kts | 236° |
| 2026-04-22 18:18 | 60.46241 | 24.98565 | 8264 ft | 308 kts | 235° |
| 2026-04-22 18:19 | 60.44804 | 24.95391 | 7970 ft | 306 kts | 235° |
| 2026-04-22 18:19 | 60.43361 | 24.92201 | 7665 ft | 305 kts | 235° |
| 2026-04-22 18:19 | 60.41935 | 24.89050 | 7348 ft | 303 kts | 235° |
| 2026-04-22 18:19 | 60.40987 | 24.86956 | 7131 ft | 302 kts | 234° |
| 2026-04-22 18:20 | 60.39108 | 24.82829 | 6707 ft | 300 kts | 234° |
| 2026-04-22 18:20 | 60.37701 | 24.79741 | 6438 ft | 298 kts | 234° |
| 2026-04-22 18:20 | 60.36296 | 24.76653 | 6130 ft | 296 kts | 233° |
| 2026-04-22 18:20 | 60.35370 | 24.74628 | 5892 ft | 296 kts | 232° |
| 2026-04-22 18:21 | 60.33497 | 24.70638 | 5453 ft | 293 kts | 232° |
| 2026-04-22 18:21 | 60.32570 | 24.68658 | 5239 ft | 289 kts | 232° |
| 2026-04-22 18:21 | 60.31203 | 24.65718 | 5001 ft | 283 kts | 232° |
| 2026-04-22 18:21 | 60.29876 | 24.62858 | 4799 ft | 273 kts | 233° |
| 2026-04-22 18:22 | 60.28596 | 24.60091 | 4679 ft | 264 kts | 233° |
| 2026-04-22 18:22 | 60.27362 | 24.57408 | 4507 ft | 257 kts | 233° |
| 2026-04-22 18:22 | 60.26179 | 24.54793 | 4320 ft | 248 kts | 236° |
| 2026-04-22 18:22 | 60.25056 | 24.52258 | 4134 ft | 238 kts | 236° |
| 2026-04-22 18:23 | 60.23854 | 24.49899 | 4104 ft | 246 kts | 223° |
| 2026-04-22 18:23 | 60.22294 | 24.48620 | 4103 ft | 253 kts | 188° |
| 2026-04-22 18:23 | 60.20607 | 24.49333 | 4104 ft | 247 kts | 143° |
| 2026-04-22 18:24 | 60.19490 | 24.54748 | 3805 ft | 199 kts | 64° |
| 2026-04-22 18:24 | 60.19857 | 24.57386 | 3655 ft | 200 kts | 63° |
| 2026-04-22 18:24 | 60.20378 | 24.62885 | 3449 ft | 193 kts | 70° |
| 2026-04-22 18:25 | 60.20559 | 24.65489 | 3273 ft | 185 kts | 66° |
| 2026-04-22 18:25 | 60.21020 | 24.67791 | 3042 ft | 170 kts | 43° |
| 2026-04-22 18:25 | 60.21770 | 24.69523 | 2851 ft | 165 kts | 33° |
| 2026-04-22 18:26 | 60.23334 | 24.72958 | 2414 ft | 166 kts | 38° |
| 2026-04-22 18:26 | 60.24109 | 24.74664 | 2262 ft | 166 kts | 36° |
| 2026-04-22 18:26 | 60.24879 | 24.76346 | 2051 ft | 162 kts | 36° |
| 2026-04-22 18:26 | 60.25629 | 24.77994 | 1827 ft | 156 kts | 36° |
| 2026-04-22 18:27 | 60.26348 | 24.79563 | 1622 ft | 151 kts | 36° |
| 2026-04-22 18:27 | 60.27060 | 24.81113 | 1413 ft | 153 kts | 36° |
| 2026-04-22 18:27 | 60.27749 | 24.82632 | 1197 ft | 143 kts | 37° |
| 2026-04-22 18:27 | 60.28426 | 24.84109 | 1005 ft | 141 kts | 37° |
| 2026-04-22 18:28 | 60.29094 | 24.85572 | 811 ft | 144 kts | 41° |
| 2026-04-22 18:28 | 60.29774 | 24.87079 | 626 ft | 146 kts | 41° |
| 2026-04-22 18:28 | 60.30476 | 24.88622 | 418 ft | 153 kts | 39° |
| 2026-04-22 18:28 | 60.31223 | 24.90220 | 224 ft | 156 kts | 44° |
| 2026-04-22 18:29 | 60.31802 | 24.91492 | 158 ft | 144 kts | 47° |
| 2026-04-22 18:29 | 60.32341 | 24.92666 | 176 ft | 72 kts | 49° |
| 2026-04-22 18:29 | 60.32457 | 24.93202 | 181 ft | 32 kts | 77° |
| 2026-04-22 18:29 | 60.32505 | 24.93645 | 178 ft | 32 kts | 78° |
| 2026-04-22 18:30 | 60.32520 | 24.93792 | 177 ft | 0 kts | 76° |
| 2026-04-22 18:30 | 60.32527 | 24.93840 | 177 ft | 7 kts | 72° |
| 2026-04-22 18:30 | 60.32560 | 24.93958 | 176 ft | 12 kts | 51° |
| 2026-04-22 18:31 | 60.32625 | 24.94107 | 177 ft | 16 kts | 48° |
| 2026-04-22 18:31 | 60.32711 | 24.94295 | 179 ft | 20 kts | 47° |
| 2026-04-22 18:31 | 60.32811 | 24.94514 | 180 ft | 21 kts | 47° |
| 2026-04-22 18:31 | 60.32907 | 24.94723 | 181 ft | 20 kts | 47° |
| 2026-04-22 18:32 | 60.32993 | 24.94913 | 183 ft | 20 kts | 48° |
| 2026-04-22 18:32 | 60.33094 | 24.95136 | 183 ft | 23 kts | 47° |
| 2026-04-22 18:32 | 60.33198 | 24.95394 | 200 ft | 24 kts | 66° |
| 2026-04-22 18:32 | 60.33185 | 24.95558 | 201 ft | 11 kts | 126° |
| 2026-04-22 18:33 | 60.33115 | 24.95698 | 197 ft | 17 kts | 140° |
| 2026-04-22 18:33 | 60.33007 | 24.95849 | 200 ft | 21 kts | 148° |
| 2026-04-22 18:33 | 60.32855 | 24.96028 | 180 ft | 28 kts | 149° |
| 2026-04-22 18:33 | 60.32677 | 24.96238 | 178 ft | 32 kts | 153° |
| 2026-04-22 18:34 | 60.32531 | 24.96404 | 180 ft | 16 kts | 148° |
| 2026-04-22 18:34 | 60.32419 | 24.96535 | 181 ft | 20 kts | 150° |
| 2026-04-22 18:34 | 60.32282 | 24.96675 | 173 ft | 16 kts | 175° |
| 2026-04-22 18:34 | 60.32267 | 24.96667 | 173 ft | 1 kts | 202° |
| 2026-04-22 18:35 | 60.32251 | 24.96649 | 174 ft | 5 kts | 212° |
| 2026-04-22 18:35 | 60.32222 | 24.96601 | 174 ft | 8 kts | 224° |
| 2026-04-22 18:35 | 60.32173 | 24.96502 | 174 ft | 12 kts | 227° |
| 2026-04-22 18:35 | 60.32108 | 24.96355 | 174 ft | 16 kts | 229° |
| 2026-04-22 18:36 | 60.32025 | 24.96171 | 174 ft | 19 kts | 227° |
| 2026-04-22 18:36 | 60.31932 | 24.95966 | 176 ft | 21 kts | 228° |
| 2026-04-22 18:36 | 60.31827 | 24.95738 | 175 ft | 23 kts | 227° |
| 2026-04-22 18:36 | 60.31713 | 24.95485 | 177 ft | 25 kts | 227° |
| 2026-04-22 18:37 | 60.31591 | 24.95215 | 176 ft | 27 kts | 227° |
| 2026-04-22 18:37 | 60.31450 | 24.94973 | 174 ft | 19 kts | 186° |
| 2026-04-22 18:37 | 60.31437 | 24.94978 | 174 ft | 0 kts | 161° |
| 2026-04-22 18:37 | 60.31424 | 24.95018 | 173 ft | 11 kts | 125° |
| 2026-04-22 18:38 | 60.31337 | 24.95200 | 173 ft | 24 kts | 137° |
| 2026-04-22 18:38 | 60.31201 | 24.95450 | 172 ft | 22 kts | 137° |
| 2026-04-22 18:38 | 60.31178 | 24.95596 | 173 ft | 11 kts | 76° |
| 2026-04-22 18:39 | 60.31325 | 24.95950 | 173 ft | 22 kts | 47° |
| 2026-04-22 18:39 | 60.31355 | 24.96006 | 173 ft | 0 kts | 21° |
| 2026-04-22 18:39 | 60.31359 | 24.96006 | 173 ft | 2 kts | 11° |
| 2026-04-22 18:39 | 60.31410 | 24.95991 | 173 ft | 11 kts | 344° |
| 2026-04-22 18:40 | 60.31423 | 24.95983 | 173 ft | 0 kts | 343° |
| 2026-04-22 18:40 | 60.31439 | 24.95973 | 173 ft | 4 kts | 344° |
| 2026-04-22 18:40 | 60.31443 | 24.95971 | 173 ft | 0 kts | 344° |
| 2026-04-22 18:40 | 60.31446 | 24.95970 | 173 ft | 0 kts | 345° |